Terminal Aerodrome Forecast
Issued by NWS

Home | Current Version | Previous Version | Text Only | Print | Product List | Glossary On
Versions: 1 2 3 4 5 6 7 8 9 10 11 12 13 14 15 16 17
000
FTPA31 PHFO 281136 CCA
TAFHLI
TAF COR
PHLI 281136Z 2812/2912 06012KT P6SM VCSH SCT022 BKN045 BKN200
      TEMPO 2812/2813 -SHRA BKN022 BKN040
     FM282000 06014KT P6SM FEW025 SCT045=

USA.gov is the U.S. government's official web portal to all federal, state and local government web resources and services.